Latest Weather Observations for Witchcliffe

IDW60801

Issued at 7:05 pm WST Thursday 31 July 2014 (issued every 30 minutes, with the page automatically refreshed every 10 minutes)

About weather observations | Map of weather stations | Latest weather observations for WA | Other Formats
Station Details ID: 009746 Name: WITCHCLIFFE Lat: -34.03 Lon: 115.10 Height: 80.0 m
Data from the previous 72 hours. | See also: Recent months at Witchcliffe
Date/Time
WST
Temp
°C
App
Temp
°C
Dew
Point
Rel
Hum
%
Delta-T
°C
Wind Press
QNH
hPa
Press
MSL
hPa
Rain
since 9 am
mm
Dir
 
Spd
km/h
Gust
km/h
Spd
kts
Gust
kts
31/07:00pm 9.0 6.2 3.0 66 2.6 SSE 7 11 4 6 1028.7 - 0.0
31/06:30pm 9.2 6.4 3.2 66 2.6 SSE 7 11 4 6 1028.3 - 0.0
31/06:00pm 10.4 6.1 3.4 62 3.0 SSE 15 20 8 11 1028.1 1028.3 0.0
31/05:30pm 11.3 7.2 4.3 62 3.2 SSE 15 22 8 12 1027.8 - 0.0
31/05:00pm 11.3 7.1 3.8 60 3.3 SSE 15 20 8 11 1027.6 - 0.0
31/04:30pm 12.1 8.3 4.1 58 3.6 SSE 13 19 7 10 1027.4 - 0.0
31/04:00pm 12.3 8.4 3.3 54 4.0 SE 13 22 7 12 1027.3 - 0.0
31/03:30pm 12.3 7.2 3.0 53 4.1 S 19 26 10 14 1027.4 - 0.0
31/03:00pm 12.2 7.5 3.2 54 4.0 SSE 17 22 9 12 1027.4 1027.6 0.0
31/02:30pm 12.5 7.6 4.2 57 3.8 SSE 19 24 10 13 1027.3 - 0.0
31/02:00pm 12.6 8.3 3.3 53 4.1 SSE 15 24 8 13 1027.3 - 0.0
31/01:30pm 12.8 9.3 3.5 53 4.2 SE 11 15 6 8 1027.5 - 0.0
31/01:00pm 12.7 8.6 4.4 57 3.8 SSE 15 22 8 12 1027.6 - 0.0
31/12:30pm 13.0 8.9 4.4 56 3.9 SSE 15 24 8 13 1027.8 - 0.0
31/12:00pm 12.7 8.3 4.7 58 3.7 ESE 17 24 9 13 1027.9 1028.1 0.0
31/11:30am 12.3 8.0 3.3 54 4.0 SE 15 22 8 12 1028.3 - 0.0
31/11:00am 12.0 6.6 2.7 53 4.1 SSE 20 32 11 17 1028.5 - 0.0
31/10:30am 11.4 6.7 3.4 58 3.5 S 17 26 9 14 1028.4 - 0.0
31/10:00am 11.3 8.7 4.3 62 3.2 SSE 7 13 4 7 1028.1 - 0.0
31/09:30am 11.0 8.4 4.0 62 3.1 S 7 11 4 6 1028.0 - 0.0
31/09:00am 10.6 8.1 3.6 62 3.1 S 6 9 3 5 1027.7 1027.9 1.2
31/08:30am 10.3 7.6 3.6 63 2.9 S 7 11 4 6 1027.4 - 1.2
31/08:00am 10.2 6.7 3.5 63 2.9 SSE 11 13 6 7 1027.1 - 1.2
31/07:30am 10.2 5.9 3.5 63 2.9 S 15 22 8 12 1026.7 - 1.2
31/07:00am 10.2 6.7 3.5 63 2.9 S 11 17 6 9 1025.9 - 1.2
31/06:30am 10.3 5.9 2.9 60 3.2 S 15 22 8 12 1025.4 - 1.2
31/06:00am 10.5 5.3 3.5 62 3.1 S 20 33 11 18 1024.9 1025.0 1.2
31/05:30am 10.6 6.0 3.6 62 3.1 S 17 24 9 13 1024.7 - 1.2
31/05:00am 10.9 6.8 4.6 65 2.8 S 15 22 8 12 1024.5 - 1.2
31/04:30am 10.8 6.5 5.3 69 2.5 S 17 26 9 14 1024.5 - 1.2
31/04:00am 11.1 6.9 3.9 61 3.2 S 15 22 8 12 1024.4 - 1.2
31/03:30am 11.2 7.7 3.7 60 3.3 S 11 17 6 9 1024.4 - 1.2
31/03:00am 11.5 7.4 4.3 61 3.2 S 15 22 8 12 1024.2 1024.3 1.2
31/02:30am 11.5 7.7 4.0 60 3.4 S 13 22 7 12 1024.2 - 1.2
31/02:00am 11.6 6.6 3.6 58 3.6 SSW 19 28 10 15 1024.2 - 1.2
31/01:30am 11.7 7.6 4.2 60 3.4 S 15 22 8 12 1024.0 - 1.2
31/01:00am 11.9 7.8 4.4 60 3.4 SSW 15 22 8 12 1023.8 - 1.2
31/12:30am 11.9 9.0 4.9 62 3.2 S 9 13 5 7 1023.6 - 1.2
31/12:00am 11.9 7.8 4.4 60 3.4 SSW 15 22 8 12 1023.5 1023.6 1.2
 
Date/Time
WST
Temp
°C
App
Temp
°C
Dew
Point
Rel
Hum
%
Delta-T
°C
Wind Press
QNH
hPa
Press
MSL
hPa
Rain
since 9 am
mm
Dir
 
Spd
km/h
Gust
km/h
Spd
kts
Gust
kts
30/11:30pm 12.1 8.1 4.8 61 3.4 SSW 15 22 8 12 1023.5 - 1.2
30/11:00pm 12.2 7.3 5.1 62 3.3 SSW 20 33 11 18 1023.6 - 1.2
30/10:30pm 12.3 8.4 5.5 63 3.2 SSW 15 26 8 14 1023.4 - 1.2
30/10:00pm 12.4 8.2 5.6 63 3.2 SW 17 32 9 17 1023.0 - 1.2
30/09:30pm 12.7 8.3 6.5 66 3.0 SW 19 32 10 17 1022.5 - 1.2
30/09:00pm 13.0 8.6 8.9 76 2.1 SW 22 33 12 18 1022.0 1022.2 1.2
30/08:30pm 13.1 10.2 11.0 87 1.1 WSW 17 30 9 16 1021.8 - 1.0
30/08:00pm 13.7 10.2 10.1 79 1.9 WSW 19 32 10 17 1021.5 - 0.6
30/07:30pm 14.2 11.7 9.6 74 2.4 WSW 13 24 7 13 1021.2 - 0.6
30/07:00pm 14.5 11.8 9.1 70 2.8 WSW 13 20 7 11 1020.9 - 0.6
30/06:30pm 14.4 11.5 9.6 73 2.5 SW 15 28 8 15 1021.0 - 0.6
30/06:00pm 14.5 11.8 8.9 69 2.8 WSW 13 24 7 13 1020.8 1021.0 0.6
30/05:30pm 14.4 11.3 9.0 70 2.8 SW 15 24 8 13 1020.6 - 0.6
30/05:00pm 14.7 10.9 8.9 68 3.0 WSW 19 32 10 17 1020.4 - 0.6
30/04:30pm 15.1 11.7 9.2 68 3.0 WSW 17 28 9 15 1020.3 - 0.6
30/04:00pm 15.5 11.3 9.6 68 3.1 WSW 22 39 12 21 1020.0 - 0.6
30/03:30pm 15.6 11.3 9.3 66 3.3 WSW 22 33 12 18 1019.8 - 0.6
30/03:00pm 15.3 12.1 11.1 76 2.2 WSW 19 32 10 17 1019.5 1019.7 0.6
30/02:30pm 15.0 12.0 12.1 83 1.6 WSW 19 32 10 17 1019.1 - 0.6
30/02:00pm 14.3 11.5 12.7 90 0.9 WSW 19 33 10 18 1019.2 - 0.6
30/01:30pm 16.3 12.7 11.9 75 2.4 W 22 37 12 20 1019.1 - 0.2
30/01:00pm 15.9 13.2 11.7 76 2.3 W 17 32 9 17 1019.2 - 0.2
30/12:37pm 16.4 11.6 11.6 73 2.6 W 28 46 15 25 1019.2 - 0.2
30/12:30pm 17.6 13.1 10.0 61 4.0 W 24 39 13 21 1019.2 - 0.2
30/12:00pm 16.5 13.0 10.8 69 3.0 W 20 39 11 21 1019.4 1019.6 0.2
30/11:30am 16.4 12.0 10.3 67 3.2 W 24 41 13 22 1019.6 - 0.2
30/11:00am 17.4 13.4 10.5 64 3.7 W 22 41 12 22 1019.9 - 0.2
30/10:30am 16.5 13.1 9.0 61 3.9 WNW 17 28 9 15 1020.2 - 0.2
30/10:00am 16.1 12.4 9.3 64 3.5 W 19 32 10 17 1020.1 - 0.2
30/09:30am 14.0 11.1 12.2 89 1.0 WNW 19 32 10 17 1020.1 - 0.2
30/09:00am 15.8 12.4 9.2 65 3.4 NW 17 28 9 15 1019.7 1019.9 0.0
30/08:30am 15.5 11.9 8.3 62 3.6 NW 17 28 9 15 1019.6 - 0.0
30/08:00am 15.4 12.3 8.9 65 3.3 NW 15 28 8 15 1019.4 - 0.0
30/07:30am 15.1 12.2 8.3 64 3.4 NW 13 19 7 10 1019.3 - 0.0
30/07:00am 15.2 11.1 8.0 62 3.6 WNW 19 28 10 15 1019.4 - 0.0
30/06:30am 15.0 12.1 8.3 64 3.4 WNW 13 22 7 12 1019.3 - 0.0
30/06:00am 15.3 11.3 8.1 62 3.6 WNW 19 37 10 20 1019.2 1019.4 0.0
30/05:30am 15.2 11.7 8.7 65 3.3 W 17 28 9 15 1019.2 - 0.0
30/05:00am 15.5 11.5 8.3 62 3.6 WNW 19 32 10 17 1019.1 - 0.0
30/04:30am 15.4 12.2 8.6 64 3.5 WNW 15 28 8 15 1019.0 - 0.0
30/04:00am 15.7 11.6 8.7 63 3.6 WNW 20 33 11 18 1019.1 - 0.0
30/03:30am 15.8 12.7 9.0 64 3.5 W 15 28 8 15 1019.3 - 0.0
30/03:00am 15.5 12.8 9.0 65 3.3 NW 13 20 7 11 1019.6 1019.8 0.0
30/02:30am 15.7 11.5 8.4 62 3.7 WNW 20 32 11 17 1019.8 - 0.0
30/02:00am 15.7 12.3 9.1 65 3.4 WNW 17 30 9 16 1019.9 - 0.0
30/01:30am 15.5 12.1 9.0 65 3.3 W 17 28 9 15 1020.0 - 0.0
30/01:00am 15.9 12.8 10.4 70 2.9 WNW 17 26 9 14 1020.1 - 0.0
30/12:30am 15.9 12.9 9.3 65 3.4 NW 15 22 8 12 1020.2 - 0.0
30/12:00am 15.9 11.8 8.6 62 3.7 NW 20 32 11 17 1020.4 1020.6 0.0
 
Date/Time
WST
Temp
°C
App
Temp
°C
Dew
Point
Rel
Hum
%
Delta-T
°C
Wind Press
QNH
hPa
Press
MSL
hPa
Rain
since 9 am
mm
Dir
 
Spd
km/h
Gust
km/h
Spd
kts
Gust
kts
29/11:30pm 15.7 12.6 8.7 63 3.6 WNW 15 22 8 12 1020.6 - 0.0
29/11:00pm 15.9 12.1 9.8 67 3.2 WNW 20 35 11 19 1020.7 - 0.0
29/10:30pm 16.0 12.9 9.0 63 3.6 NW 15 24 8 13 1020.7 - 0.0
29/10:00pm 15.6 12.6 9.1 65 3.4 WNW 15 19 8 10 1020.7 - 0.0
29/09:30pm 15.7 12.7 9.1 65 3.4 WNW 15 26 8 14 1020.8 - 0.0
29/09:00pm 15.7 12.9 10.0 69 3.0 WNW 15 24 8 13 1020.9 1021.1 0.0
29/08:30pm 15.5 13.4 11.3 76 2.3 WNW 13 22 7 12 1021.0 - 0.0
29/08:00pm 15.3 12.9 11.3 77 2.1 WNW 15 24 8 13 1021.0 - 0.0
29/07:30pm 15.1 13.0 11.1 77 2.1 NW 13 19 7 10 1021.1 - 0.0
29/07:00pm 15.0 12.2 11.2 78 2.0 NNW 17 28 9 15 1021.2 - 0.0
29/06:30pm 14.9 11.5 11.3 79 1.9 NW 20 35 11 19 1021.3 - 0.0
29/06:00pm 15.8 13.0 9.9 68 3.1 NW 15 24 8 13 1021.1 1021.3 0.0
29/05:30pm 15.5 11.9 10.5 72 2.6 WNW 20 32 11 17 1020.9 - 0.0
29/05:00pm 15.8 13.0 10.1 69 3.0 NW 15 24 8 13 1020.7 - 0.0
29/04:30pm 15.7 13.8 10.5 71 2.8 NW 11 20 6 11 1020.6 - 0.0
29/04:00pm 16.0 12.9 10.3 69 3.0 WNW 17 30 9 16 1020.6 - 0.0
29/03:30pm 16.1 13.9 10.8 71 2.8 W 13 20 7 11 1020.5 - 0.0
29/03:00pm 16.2 13.2 10.5 69 3.0 NW 17 32 9 17 1020.7 1020.9 0.0
29/02:30pm 16.1 13.9 10.8 71 2.8 NW 13 20 7 11 1020.7 - 0.0
29/02:00pm 16.2 12.5 9.6 65 3.4 NW 19 30 10 16 1020.8 - 0.0
29/01:30pm 16.2 13.9 10.5 69 3.0 WNW 13 24 7 13 1020.8 - 0.0
29/01:00pm 16.3 13.6 10.2 67 3.2 WNW 15 22 8 12 1020.9 - 0.0
29/12:30pm 17.0 13.4 8.4 57 4.4 W 17 28 9 15 1021.2 - 0.0
29/12:00pm 17.3 13.5 9.2 59 4.2 WNW 19 30 10 16 1021.6 1021.8 0.0
29/11:30am 17.2 13.9 9.4 60 4.1 WNW 17 26 9 14 1021.9 - 0.0
29/11:00am 16.4 13.0 9.3 63 3.7 WNW 17 28 9 15 1022.2 - 0.0
29/10:30am 16.3 13.4 9.7 65 3.5 WNW 15 24 8 13 1022.2 - 0.0
29/10:00am 16.2 13.7 9.8 66 3.4 NW 13 24 7 13 1022.1 - 0.0
29/09:30am 15.8 14.0 10.8 72 2.7 WNW 11 24 6 13 1021.9 - 0.0
29/09:00am 15.5 12.8 10.3 71 2.7 WNW 15 20 8 11 1021.7 1021.9 0.4
29/08:30am 15.5 13.4 8.3 62 3.6 NW 9 17 5 9 1021.4 - 0.4
29/08:00am 15.3 12.9 8.5 64 3.5 WNW 11 24 6 13 1021.4 - 0.4
29/07:30am 15.1 13.1 8.8 66 3.2 WNW 9 15 5 8 1021.1 - 0.4
29/07:00am 15.1 13.7 9.5 69 2.9 W 7 15 4 8 1020.9 - 0.4
29/06:30am 15.1 13.1 10.1 72 2.6 W 11 17 6 9 1020.9 - 0.4
29/06:00am 14.5 13.4 10.7 78 2.0 WNW 7 15 4 8 1020.7 1020.9 0.4
29/05:30am 14.5 13.1 10.9 79 1.9 WSW 9 15 5 8 1020.5 - 0.4
29/05:00am 14.5 12.7 8.0 65 3.3 NW 7 11 4 6 1020.4 - 0.4
29/04:30am 14.6 11.9 7.2 61 3.6 NW 11 15 6 8 1020.4 - 0.4
29/04:00am 15.0 12.0 7.5 61 3.7 W 13 20 7 11 1020.5 - 0.4
29/03:30am 15.2 12.2 7.5 60 3.8 W 13 28 7 15 1020.5 - 0.4
29/03:00am 15.4 12.1 7.9 61 3.8 W 15 22 8 12 1020.5 1020.7 0.4
29/02:30am 15.4 12.2 8.6 64 3.5 W 15 22 8 12 1020.5 - 0.4
29/02:00am 15.3 11.8 8.8 65 3.3 W 17 30 9 16 1020.4 - 0.4
29/01:30am 15.5 12.4 8.7 64 3.5 WNW 15 24 8 13 1020.6 - 0.4
29/01:00am 15.5 12.1 9.2 66 3.3 W 17 26 9 14 1020.6 - 0.4
29/12:30am 15.6 12.3 9.5 67 3.2 WNW 17 26 9 14 1020.7 - 0.4
29/12:00am 15.4 12.5 9.5 68 3.1 WNW 15 20 8 11 1020.8 1021.0 0.4
 
Date/Time
WST
Temp
°C
App
Temp
°C
Dew
Point
Rel
Hum
%
Delta-T
°C
Wind Press
QNH
hPa
Press
MSL
hPa
Rain
since 9 am
mm
Dir
 
Spd
km/h
Gust
km/h
Spd
kts
Gust
kts
28/11:30pm 14.8 12.4 10.0 73 2.5 WNW 13 22 7 12 1020.7 - 0.4
28/11:00pm 14.9 12.1 9.9 72 2.6 WNW 15 24 8 13 1021.0 - 0.4
28/10:30pm 14.6 12.4 9.4 71 2.7 WNW 11 19 6 10 1020.9 - 0.4
28/10:00pm 14.6 12.4 9.2 70 2.8 WNW 11 17 6 9 1021.0 - 0.4
28/09:30pm 15.0 12.3 9.1 68 3.0 NW 13 19 7 10 1021.0 - 0.4
28/09:00pm 15.1 12.7 9.9 71 2.7 WNW 13 20 7 11 1021.1 1021.3 0.4
28/08:30pm 15.1 11.6 10.1 72 2.6 W 19 32 10 17 1021.4 - 0.4
28/08:00pm 15.2 13.2 10.2 72 2.6 WNW 11 24 6 13 1021.2 - 0.4
28/07:30pm 15.4 13.0 10.2 71 2.7 WNW 13 20 7 11 1021.1 - 0.4

Other Formats:

Comma delimited format used in spreadsheet applications
http://www.bom.gov.au/fwo/IDW60801/IDW60801.95641.axf

JavaScript Object Notation format (JSON) in row-major order
http://www.bom.gov.au/fwo/IDW60801/IDW60801.95641.json